Christian W Cenac — WDF5379 — position and weather

sailwx.info

Track history (hours):
 
Tides and Currents Weather Stations Pressure Air Temp Water Temp Dewpoint Dewpoint Depression Visibility Wind Speed Wind Dir Waves Ship Positions

Christian W Cenac

Owner: CTCO Marine Services LLC, Houma, LA. More information available from US FCC via Universal Licensing System and Coast Guard Vessel Documentation Center.

Last reported at 2017-Oct-09 02:01 UTC. Time now 2017-Oct-18 00:15 UTC.
Position N 29°33' W 090°28'.
Warning: this ship's position is 8 days out of date.

Length 85 m; draft 2.1 m.

Type: Tug. MMSI: 367462490.

Date/timePositionNaut miles runAvg speedWind from/ knotsBaromVisibWave heightAir tempDewpointWater temp
2017-Oct-09 02:01N 29°33' W 090°28'1 5.6
2017-Oct-09 01:52N 29°34' W 090°29'2 5.6
2017-Oct-09 01:30N 29°34' W 090°31'3 4.4
2017-Oct-09 00:54N 29°34' W 090°34'2 4.7
2017-Oct-09 00:30N 29°35' W 090°37'2 4.8
2017-Oct-09 00:00N 29°36' W 090°39'2 4.7
2017-Oct-08 23:30N 29°37' W 090°41'2 3.1
2017-Oct-08 23:00N 29°35' W 090°43'2 3.7
2017-Oct-08 22:30N 29°34' W 090°44'3 5.1
2017-Oct-08 22:00N 29°32' W 090°46'69 4.5
2017-Oct-08 06:49N 29°49' W 092°03'2 5.3
2017-Oct-08 06:30N 29°48' W 092°05'3 5.1
2017-Oct-08 06:00N 29°47' W 092°07'3 5.3
2017-Oct-08 05:30N 29°47' W 092°10'2 3.9
2017-Oct-08 05:00N 29°47' W 092°12'2 3.3
2017-Oct-08 04:30N 29°48' W 092°14'0 0.0
2017-Oct-08 04:00N 29°48' W 092°14'0 0.8
2017-Oct-08 03:30N 29°48' W 092°15'4 4.8
2017-Oct-08 02:36N 29°50' W 092°19'0 1.7
2017-Oct-08 02:27N 29°50' W 092°19'42 4.4
2017-Oct-07 17:02N 29°56' W 093°07'1 4.4
2017-Oct-07 16:46N 29°56' W 093°08'1 4.8
2017-Oct-07 16:30N 29°56' W 093°10'2 4.9
2017-Oct-07 16:00N 29°58' W 093°12'2 4.6
2017-Oct-07 15:30N 29°60' W 093°13'2 3.7
2017-Oct-07 15:00N 30°02' W 093°14'2 4.3
2017-Oct-07 14:30N 30°03' W 093°16'2 4.9
2017-Oct-07 14:00N 30°05' W 093°18'0 0.9
2017-Oct-07 13:30N 30°06' W 093°18'1 1.3
2017-Oct-07 13:00N 30°06' W 093°18'2 3.3
2017-Oct-07 12:30N 30°05' W 093°20'2 3.4
2017-Oct-07 12:00N 30°04' W 093°21'2 3.8
2017-Oct-07 11:29N 30°04' W 093°23'2 5.1
2017-Oct-07 11:00N 30°04' W 093°26'82 4.3
2017-Oct-06 16:01N 29°33' W 094°54'0 6.5
2017-Oct-06 15:59N 29°33' W 094°54'3 5.8
2017-Oct-06 15:30N 29°35' W 094°56'3 5.1
2017-Oct-06 14:52N 29°37' W 094°59'2 4.6
2017-Oct-06 14:30N 29°37' W 095°01'0 0.6
2017-Oct-06 14:00N 29°37' W 095°01'0 0.4
2017-Oct-06 13:30N 29°37' W 095°01'0 0.0
2017-Oct-06 13:00N 29°37' W 095°01'0 0.0
2017-Oct-06 12:30N 29°37' W 095°01'0 0.0
2017-Oct-06 12:00N 29°37' W 095°01'0 0.0
2017-Oct-06 11:30N 29°37' W 095°01'0 0.0
2017-Oct-06 11:00N 29°37' W 095°01'0 0.0
2017-Oct-06 10:30N 29°37' W 095°01'0 0.0
2017-Oct-06 10:00N 29°37' W 095°01'0 0.0
2017-Oct-06 09:30N 29°37' W 095°01'0 0.0
2017-Oct-06 09:00N 29°37' W 095°01'0 0.0
2017-Oct-06 08:30N 29°37' W 095°01'0 0.0
2017-Oct-06 08:00N 29°37' W 095°01'0 0.0
2017-Oct-06 07:30N 29°37' W 095°01'0 0.0
2017-Oct-06 07:00N 29°37' W 095°01'0 0.0
2017-Oct-06 06:30N 29°37' W 095°01'0 0.0
2017-Oct-06 06:00N 29°37' W 095°01'0 0.0
2017-Oct-06 05:30N 29°37' W 095°01'0 0.0
2017-Oct-06 05:00N 29°37' W 095°01'0 0.0
2017-Oct-06 04:30N 29°37' W 095°01'0 0.0
2017-Oct-06 04:00N 29°37' W 095°01'0 0.0
2017-Oct-06 03:30N 29°37' W 095°01'0 0.0
2017-Oct-06 03:00N 29°37' W 095°01'0 0.0
2017-Oct-06 02:30N 29°37' W 095°01'0 0.4
2017-Oct-06 02:00N 29°37' W 095°02'0 0.0
2017-Oct-06 01:30N 29°37' W 095°02'0 0.0
2017-Oct-06 01:00N 29°37' W 095°02'0 0.0
2017-Oct-06 00:30N 29°37' W 095°02'0 0.1
2017-Oct-06 00:00N 29°37' W 095°01'3 5.0
2017-Oct-05 23:19N 29°37' W 094°58'2 6.3
2017-Oct-05 23:00N 29°39' W 094°58'4 5.9
2017-Oct-05 22:24N 29°42' W 095°00'  
2017-Oct-02 05:34N 29°43' W 095°01'1 6.5
2017-Oct-02 05:30N 29°42' W 095°01'3 6.2
2017-Oct-02 04:59N 29°40' W 094°59'3 6.8
2017-Oct-02 04:29N 29°37' W 094°57'3 7.1
2017-Oct-02 04:00N 29°34' W 094°55'74 5.0
2017-Oct-01 13:10N 30°04' W 093°37'3 6.0
2017-Oct-01 12:41N 30°04' W 093°34'2 6.0
2017-Oct-01 12:25N 30°04' W 093°32'2 5.9
2017-Oct-01 12:00N 30°04' W 093°29'3 5.8
2017-Oct-01 11:31N 30°04' W 093°26'3 5.6
2017-Oct-01 11:00N 30°04' W 093°23'2 4.1
2017-Oct-01 10:31N 30°04' W 093°21'2 4.1
2017-Oct-01 10:01N 30°06' W 093°19'1 2.6
2017-Oct-01 09:31N 30°05' W 093°18'2 3.6
2017-Oct-01 09:01N 30°04' W 093°16'1 1.0
2017-Oct-01 08:30N 30°04' W 093°16'0 0.0
2017-Oct-01 08:00N 30°04' W 093°16'0 0.0
2017-Oct-01 07:30N 30°04' W 093°16'0 0.0
2017-Oct-01 07:01N 30°04' W 093°16'0 0.0
2017-Oct-01 06:31N 30°04' W 093°16'1 1.2
2017-Oct-01 06:01N 30°03' W 093°16'2 4.8
2017-Oct-01 05:31N 30°01' W 093°14'3 6.0
2017-Oct-01 05:00N 29°59' W 093°12'3 6.4
2017-Oct-01 04:28N 29°56' W 093°09'131 4.9
2017-Sep-30 02:00N 29°36' W 090°41'3 5.7
2017-Sep-30 01:26N 29°35' W 090°37'4 5.1
2017-Sep-30 00:43N 29°34' W 090°33'1 4.8
2017-Sep-30 00:28N 29°34' W 090°32'  
Track history (hours):
 
Tides and Currents Weather Stations Pressure Air Temp Water Temp Dewpoint Dewpoint Depression Visibility Wind Speed Wind Dir Waves Ship Positions

Christian W Cenac

Owner: CTCO Marine Services LLC, Houma, LA. More information available from US FCC via Universal Licensing System and Coast Guard Vessel Documentation Center.

Last reported at 2017-Oct-09 02:01 UTC. Time now 2017-Oct-18 00:15 UTC.
Position N 29°33' W 090°28'.
Warning: this ship's position is 8 days out of date.

Length 85 m; draft 2.1 m.

Type: Tug. MMSI: 367462490.

Date/timePositionNaut miles runAvg speedWind from/ knotsBaromVisibWave heightAir tempDewpointWater temp
2017-Oct-09 02:01N 29°33' W 090°28'1 5.6
2017-Oct-09 01:52N 29°34' W 090°29'2 5.6
2017-Oct-09 01:30N 29°34' W 090°31'3 4.4
2017-Oct-09 00:54N 29°34' W 090°34'2 4.7
2017-Oct-09 00:30N 29°35' W 090°37'2 4.8
2017-Oct-09 00:00N 29°36' W 090°39'2 4.7
2017-Oct-08 23:30N 29°37' W 090°41'2 3.1
2017-Oct-08 23:00N 29°35' W 090°43'2 3.7
2017-Oct-08 22:30N 29°34' W 090°44'3 5.1
2017-Oct-08 22:00N 29°32' W 090°46'69 4.5
2017-Oct-08 06:49N 29°49' W 092°03'2 5.3
2017-Oct-08 06:30N 29°48' W 092°05'3 5.1
2017-Oct-08 06:00N 29°47' W 092°07'3 5.3
2017-Oct-08 05:30N 29°47' W 092°10'2 3.9
2017-Oct-08 05:00N 29°47' W 092°12'2 3.3
2017-Oct-08 04:30N 29°48' W 092°14'0 0.0
2017-Oct-08 04:00N 29°48' W 092°14'0 0.8
2017-Oct-08 03:30N 29°48' W 092°15'4 4.8
2017-Oct-08 02:36N 29°50' W 092°19'0 1.7
2017-Oct-08 02:27N 29°50' W 092°19'42 4.4
2017-Oct-07 17:02N 29°56' W 093°07'1 4.4
2017-Oct-07 16:46N 29°56' W 093°08'1 4.8
2017-Oct-07 16:30N 29°56' W 093°10'2 4.9
2017-Oct-07 16:00N 29°58' W 093°12'2 4.6
2017-Oct-07 15:30N 29°60' W 093°13'2 3.7
2017-Oct-07 15:00N 30°02' W 093°14'2 4.3
2017-Oct-07 14:30N 30°03' W 093°16'2 4.9
2017-Oct-07 14:00N 30°05' W 093°18'0 0.9
2017-Oct-07 13:30N 30°06' W 093°18'1 1.3
2017-Oct-07 13:00N 30°06' W 093°18'2 3.3
2017-Oct-07 12:30N 30°05' W 093°20'2 3.4
2017-Oct-07 12:00N 30°04' W 093°21'2 3.8
2017-Oct-07 11:29N 30°04' W 093°23'2 5.1
2017-Oct-07 11:00N 30°04' W 093°26'82 4.3
2017-Oct-06 16:01N 29°33' W 094°54'0 6.5
2017-Oct-06 15:59N 29°33' W 094°54'3 5.8
2017-Oct-06 15:30N 29°35' W 094°56'3 5.1
2017-Oct-06 14:52N 29°37' W 094°59'2 4.6
2017-Oct-06 14:30N 29°37' W 095°01'0 0.6
2017-Oct-06 14:00N 29°37' W 095°01'0 0.4
2017-Oct-06 13:30N 29°37' W 095°01'0 0.0
2017-Oct-06 13:00N 29°37' W 095°01'0 0.0
2017-Oct-06 12:30N 29°37' W 095°01'0 0.0
2017-Oct-06 12:00N 29°37' W 095°01'0 0.0
2017-Oct-06 11:30N 29°37' W 095°01'0 0.0
2017-Oct-06 11:00N 29°37' W 095°01'0 0.0
2017-Oct-06 10:30N 29°37' W 095°01'0 0.0
2017-Oct-06 10:00N 29°37' W 095°01'0 0.0
2017-Oct-06 09:30N 29°37' W 095°01'0 0.0
2017-Oct-06 09:00N 29°37' W 095°01'0 0.0
2017-Oct-06 08:30N 29°37' W 095°01'0 0.0
2017-Oct-06 08:00N 29°37' W 095°01'0 0.0
2017-Oct-06 07:30N 29°37' W 095°01'0 0.0
2017-Oct-06 07:00N 29°37' W 095°01'0 0.0
2017-Oct-06 06:30N 29°37' W 095°01'0 0.0
2017-Oct-06 06:00N 29°37' W 095°01'0 0.0
2017-Oct-06 05:30N 29°37' W 095°01'0 0.0
2017-Oct-06 05:00N 29°37' W 095°01'0 0.0
2017-Oct-06 04:30N 29°37' W 095°01'0 0.0
2017-Oct-06 04:00N 29°37' W 095°01'0 0.0
2017-Oct-06 03:30N 29°37' W 095°01'0 0.0
2017-Oct-06 03:00N 29°37' W 095°01'0 0.0
2017-Oct-06 02:30N 29°37' W 095°01'0 0.4
2017-Oct-06 02:00N 29°37' W 095°02'0 0.0
2017-Oct-06 01:30N 29°37' W 095°02'0 0.0
2017-Oct-06 01:00N 29°37' W 095°02'0 0.0
2017-Oct-06 00:30N 29°37' W 095°02'0 0.1
2017-Oct-06 00:00N 29°37' W 095°01'3 5.0
2017-Oct-05 23:19N 29°37' W 094°58'2 6.3
2017-Oct-05 23:00N 29°39' W 094°58'4 5.9
2017-Oct-05 22:24N 29°42' W 095°00'  
2017-Oct-02 05:34N 29°43' W 095°01'1 6.5
2017-Oct-02 05:30N 29°42' W 095°01'3 6.2
2017-Oct-02 04:59N 29°40' W 094°59'3 6.8
2017-Oct-02 04:29N 29°37' W 094°57'3 7.1
2017-Oct-02 04:00N 29°34' W 094°55'74 5.0
2017-Oct-01 13:10N 30°04' W 093°37'3 6.0
2017-Oct-01 12:41N 30°04' W 093°34'2 6.0
2017-Oct-01 12:25N 30°04' W 093°32'2 5.9
2017-Oct-01 12:00N 30°04' W 093°29'3 5.8
2017-Oct-01 11:31N 30°04' W 093°26'3 5.6
2017-Oct-01 11:00N 30°04' W 093°23'2 4.1
2017-Oct-01 10:31N 30°04' W 093°21'2 4.1
2017-Oct-01 10:01N 30°06' W 093°19'1 2.6
2017-Oct-01 09:31N 30°05' W 093°18'2 3.6
2017-Oct-01 09:01N 30°04' W 093°16'1 1.0
2017-Oct-01 08:30N 30°04' W 093°16'0 0.0
2017-Oct-01 08:00N 30°04' W 093°16'0 0.0
2017-Oct-01 07:30N 30°04' W 093°16'0 0.0
2017-Oct-01 07:01N 30°04' W 093°16'0 0.0
2017-Oct-01 06:31N 30°04' W 093°16'1 1.2
2017-Oct-01 06:01N 30°03' W 093°16'2 4.8
2017-Oct-01 05:31N 30°01' W 093°14'3 6.0
2017-Oct-01 05:00N 29°59' W 093°12'3 6.4
2017-Oct-01 04:28N 29°56' W 093°09'131 4.9
2017-Sep-30 02:00N 29°36' W 090°41'3 5.7
2017-Sep-30 01:26N 29°35' W 090°37'4 5.1
2017-Sep-30 00:43N 29°34' W 090°33'1 4.8
2017-Sep-30 00:28N 29°34' W 090°32'  

Dump ship's entire track history